createdAt,value
2023-05-16T00:00:16.586Z,13.40
2023-05-16T00:03:06.544Z,13.40
2023-05-16T00:05:56.266Z,13.30
2023-05-16T00:08:44.828Z,13.40
2023-05-16T00:15:59.672Z,13.30
2023-05-16T00:18:48.672Z,13.30
2023-05-16T00:21:38.337Z,13.40
2023-05-16T00:24:26.971Z,13.40
2023-05-16T00:27:15.752Z,13.40
2023-05-16T00:30:05.039Z,13.50
2023-05-16T00:32:56.313Z,13.40
2023-05-16T00:35:46.075Z,13.40
2023-05-16T00:38:34.877Z,13.40
2023-05-16T00:41:23.813Z,13.40
2023-05-16T00:44:12.551Z,13.40
2023-05-16T00:47:02.854Z,13.40
2023-05-16T00:49:53.077Z,13.40
2023-05-16T00:52:43.882Z,13.40
2023-05-16T00:55:32.541Z,13.40
2023-05-16T00:58:24.034Z,13.50
2023-05-16T01:01:13.584Z,13.40
2023-05-16T01:04:02.737Z,13.40
2023-05-16T01:06:52.832Z,13.40
2023-05-16T01:09:42.319Z,13.50
2023-05-16T01:12:38.746Z,13.40
2023-05-16T01:15:32.103Z,13.50
2023-05-16T01:18:31.176Z,13.50
2023-05-16T01:21:32.291Z,13.50
2023-05-16T01:24:34.484Z,13.50
2023-05-16T01:27:26.683Z,13.50
2023-05-16T01:30:17.399Z,13.50
2023-05-16T01:33:06.452Z,13.40
2023-05-16T01:36:01.450Z,13.40
2023-05-16T01:39:02.758Z,13.30
2023-05-16T01:42:02.326Z,13.30
2023-05-16T01:45:02.200Z,13.30
2023-05-16T01:47:58.317Z,13.40
2023-05-16T01:50:51.946Z,13.40
2023-05-16T01:53:41.102Z,13.40
2023-05-16T01:56:31.246Z,13.40
2023-05-16T01:59:22.034Z,13.40
2023-05-16T02:02:12.905Z,13.40
2023-05-16T02:05:01.651Z,13.40
2023-05-16T02:07:50.819Z,13.30
2023-05-16T02:10:41.398Z,13.30
2023-05-16T02:13:30.206Z,13.30
2023-05-16T02:16:18.950Z,13.30
2023-05-16T02:19:09.356Z,13.30
2023-05-16T02:22:01.101Z,13.20
2023-05-16T02:24:49.781Z,13.20
2023-05-16T02:27:38.494Z,13.20
2023-05-16T02:30:27.214Z,13.10
2023-05-16T02:33:15.989Z,13.20
2023-05-16T02:36:06.428Z,13.20
2023-05-16T02:38:55.462Z,13.10
2023-05-16T02:41:44.465Z,13.10
2023-05-16T02:44:33.398Z,13.20
2023-05-16T02:47:22.125Z,13.20
2023-05-16T02:50:11.618Z,13.20
2023-05-16T02:53:02.590Z,13.10
2023-05-16T02:55:51.693Z,13.10
2023-05-16T02:58:41.804Z,13.10
2023-05-16T03:01:31.114Z,13.00
2023-05-16T03:04:20.248Z,13.00
2023-05-16T03:07:09.267Z,13.00
2023-05-16T03:09:59.318Z,13.00
2023-05-16T03:12:51.323Z,13.00
2023-05-16T03:15:40.170Z,13.10
2023-05-16T03:18:29.325Z,13.00
2023-05-16T03:21:18.424Z,13.10
2023-05-16T03:24:08.260Z,13.10
2023-05-16T03:27:00.094Z,13.20
2023-05-16T03:29:48.776Z,13.10
2023-05-16T03:32:39.288Z,13.10
2023-05-16T03:35:28.669Z,13.20
2023-05-16T03:38:17.576Z,13.30
2023-05-16T03:41:06.586Z,13.30
2023-05-16T03:43:56.854Z,13.30
2023-05-16T03:46:46.031Z,13.40
2023-05-16T03:49:35.049Z,13.40
2023-05-16T03:52:23.813Z,13.40
2023-05-16T03:55:14.584Z,13.40
2023-05-16T03:58:03.784Z,13.50
2023-05-16T04:00:53.782Z,13.40
2023-05-16T04:03:42.465Z,13.40
2023-05-16T04:06:32.533Z,13.50
2023-05-16T04:09:21.300Z,13.60
2023-05-16T04:12:10.233Z,13.50
2023-05-16T04:14:59.322Z,13.70
2023-05-16T04:17:49.608Z,13.70
2023-05-16T04:20:38.329Z,13.80
2023-05-16T04:23:27.165Z,13.70
2023-05-16T04:26:15.952Z,13.90
2023-05-16T04:29:04.877Z,13.90
2023-05-16T04:31:54.204Z,13.80
2023-05-16T04:34:46.961Z,14.00
2023-05-16T04:37:35.883Z,14.00
2023-05-16T04:40:25.564Z,14.10
2023-05-16T04:43:14.363Z,14.20
2023-05-16T04:46:04.239Z,14.30
2023-05-16T04:48:53.235Z,14.30
2023-05-16T04:51:43.753Z,14.50
2023-05-16T04:54:33.139Z,14.60
2023-05-16T04:57:22.042Z,14.70
2023-05-16T05:00:12.194Z,14.80
2023-05-16T05:03:01.158Z,14.90
2023-05-16T05:05:50.140Z,15.00
2023-05-16T05:08:40.292Z,15.00
2023-05-16T05:11:29.032Z,15.10
2023-05-16T05:14:17.917Z,15.20
2023-05-16T05:17:07.471Z,15.30
2023-05-16T05:19:56.307Z,15.40
2023-05-16T05:22:45.120Z,15.50
2023-05-16T05:25:37.861Z,15.50
2023-05-16T05:28:26.913Z,15.70
2023-05-16T05:31:15.580Z,15.90
2023-05-16T05:34:04.652Z,15.90
2023-05-16T05:36:53.355Z,16.00
2023-05-16T05:39:41.984Z,15.90
2023-05-16T05:42:32.401Z,16.10
2023-05-16T05:45:21.073Z,16.20
2023-05-16T05:48:11.055Z,16.00
2023-05-16T05:50:59.718Z,15.80
2023-05-16T05:53:48.551Z,15.80
2023-05-16T05:56:37.546Z,16.80
2023-05-16T05:59:27.902Z,16.50
2023-05-16T06:02:17.655Z,16.60
2023-05-16T06:05:07.308Z,16.40
2023-05-16T06:07:56.053Z,16.40
2023-05-16T06:10:44.679Z,16.30
2023-05-16T06:13:33.676Z,16.10
2023-05-16T06:16:26.616Z,16.10
2023-05-16T06:19:16.538Z,16.10
2023-05-16T06:22:05.623Z,16.10
2023-05-16T06:24:54.802Z,16.30
2023-05-16T06:27:43.585Z,16.30
2023-05-16T06:30:32.704Z,16.10
2023-05-16T06:33:22.957Z,16.10
2023-05-16T06:36:11.764Z,16.10
2023-05-16T06:39:01.108Z,16.10
2023-05-16T06:41:49.882Z,16.00
2023-05-16T06:44:38.742Z,16.00
2023-05-16T06:47:27.768Z,16.20
2023-05-16T06:50:17.893Z,16.10
2023-05-16T06:53:07.472Z,16.20
2023-05-16T06:55:56.488Z,16.00
2023-05-16T06:58:45.208Z,16.10
2023-05-16T07:01:34.186Z,16.00
2023-05-16T07:04:23.104Z,16.00
2023-05-16T07:07:13.669Z,16.00
2023-05-16T07:10:02.526Z,16.10
2023-05-16T07:12:51.275Z,16.30
2023-05-16T07:15:40.195Z,16.20
2023-05-16T07:18:29.095Z,16.20
2023-05-16T07:21:17.784Z,16.00
2023-05-16T07:24:08.565Z,16.10
2023-05-16T07:26:57.301Z,16.30
2023-05-16T07:29:46.434Z,16.20
2023-05-16T07:32:35.117Z,16.20
2023-05-16T07:35:23.857Z,16.10
2023-05-16T07:38:13.316Z,16.30
2023-05-16T07:41:04.151Z,16.60
2023-05-16T07:43:52.916Z,17.30
2023-05-16T07:46:45.077Z,17.90
2023-05-16T07:49:34.280Z,18.90
2023-05-16T07:52:22.989Z,19.20
2023-05-16T07:55:12.001Z,19.20
2023-05-16T07:58:02.792Z,18.80
2023-05-16T08:00:51.507Z,18.70
2023-05-16T08:03:40.484Z,18.60
2023-05-16T08:06:29.995Z,18.20
2023-05-16T08:09:19.530Z,17.80
2023-05-16T08:12:09.553Z,17.60
2023-05-16T08:14:59.584Z,17.50
2023-05-16T08:17:48.386Z,17.40
2023-05-16T08:20:37.550Z,17.40
2023-05-16T08:23:26.364Z,17.30
2023-05-16T08:26:15.672Z,17.30
2023-05-16T08:29:05.085Z,17.20
2023-05-16T08:31:55.558Z,17.20
2023-05-16T08:34:48.248Z,17.10
2023-05-16T08:37:37.091Z,17.10
2023-05-16T08:40:27.891Z,17.00
2023-05-16T08:43:16.885Z,17.10
2023-05-16T08:46:05.753Z,17.40
2023-05-16T08:49:00.854Z,17.40
2023-05-16T08:51:52.353Z,17.90
2023-05-16T08:54:42.359Z,18.60
2023-05-16T08:57:33.572Z,18.90
2023-05-16T09:00:24.209Z,18.80
2023-05-16T09:03:13.566Z,18.70
2023-05-16T09:06:07.921Z,18.40
2023-05-16T09:08:57.451Z,18.30
2023-05-16T09:11:47.027Z,18.20
2023-05-16T09:14:36.597Z,18.20
2023-05-16T09:17:38.796Z,18.50
2023-05-16T09:20:31.435Z,18.70
2023-05-16T09:23:25.893Z,18.40
2023-05-16T09:26:15.059Z,18.10
2023-05-16T09:29:11.430Z,17.90
2023-05-16T09:32:10.354Z,17.90
2023-05-16T09:35:01.478Z,18.20
2023-05-16T09:37:53.130Z,18.30
2023-05-16T09:40:44.146Z,20.30
2023-05-16T09:43:34.490Z,20.20
2023-05-16T09:46:28.682Z,19.50
2023-05-16T09:49:17.745Z,19.10
2023-05-16T09:52:07.565Z,19.00
2023-05-16T09:54:56.815Z,18.80
2023-05-16T09:57:48.393Z,19.60
2023-05-16T10:00:37.163Z,20.40
2023-05-16T10:03:27.110Z,20.00
2023-05-16T10:06:17.331Z,19.40
2023-05-16T10:09:07.085Z,19.20
2023-05-16T10:11:57.735Z,19.40
2023-05-16T10:14:50.618Z,19.40
2023-05-16T10:17:42.084Z,18.90
2023-05-16T10:20:31.155Z,18.60
2023-05-16T10:23:22.680Z,18.40
2023-05-16T10:26:14.739Z,18.40
2023-05-16T10:29:05.393Z,18.10
2023-05-16T10:31:56.383Z,18.00
2023-05-16T10:34:47.141Z,18.00
2023-05-16T10:37:37.201Z,17.90
2023-05-16T10:40:30.306Z,18.00
2023-05-16T10:43:27.034Z,18.00
2023-05-16T10:46:16.226Z,17.90
2023-05-16T10:49:26.052Z,17.80
2023-05-16T10:52:15.877Z,17.70
2023-05-16T10:55:06.016Z,17.70
2023-05-16T10:57:54.896Z,17.70
2023-05-16T11:00:43.723Z,18.10
2023-05-16T11:03:32.594Z,18.30
2023-05-16T11:06:25.266Z,18.70
2023-05-16T11:09:28.517Z,18.90
2023-05-16T11:12:17.647Z,18.90
2023-05-16T11:15:20.599Z,18.70
2023-05-16T11:18:11.476Z,18.60
2023-05-16T11:21:05.828Z,19.10
2023-05-16T11:24:31.203Z,19.20
2023-05-16T11:27:24.842Z,19.40
2023-05-16T11:30:15.722Z,19.60
2023-05-16T11:33:04.836Z,19.50
2023-05-16T11:36:15.066Z,19.20
2023-05-16T11:39:09.643Z,18.90
2023-05-16T11:42:00.282Z,18.60
2023-05-16T11:44:49.162Z,18.70
2023-05-16T11:47:39.726Z,19.20
2023-05-16T11:50:29.157Z,20.10
2023-05-16T11:53:17.877Z,20.00
2023-05-16T11:56:09.881Z,19.90
2023-05-16T11:59:01.087Z,19.90
2023-05-16T12:01:50.632Z,19.90
2023-05-16T12:04:39.593Z,20.90
2023-05-16T12:07:30.155Z,25.50
2023-05-16T12:10:19.045Z,28.40
2023-05-16T12:13:08.228Z,27.60
2023-05-16T12:15:59.126Z,26.90
2023-05-16T12:18:48.424Z,25.70
2023-05-16T12:21:39.418Z,25.10
2023-05-16T12:24:32.611Z,27.00
2023-05-16T12:27:24.393Z,31.60
2023-05-16T12:30:14.337Z,33.60
2023-05-16T12:33:10.727Z,30.70
2023-05-16T12:36:02.014Z,27.60
2023-05-16T12:41:43.538Z,24.00
2023-05-16T12:44:32.656Z,23.10
2023-05-16T12:47:21.634Z,22.00
2023-05-16T12:50:17.645Z,21.50
2023-05-16T12:53:06.801Z,21.20
2023-05-16T12:55:55.551Z,21.20
2023-05-16T12:58:44.578Z,21.30
2023-05-16T13:01:33.878Z,21.40
2023-05-16T13:04:23.915Z,21.30
2023-05-16T13:07:14.273Z,21.30
2023-05-16T13:10:04.421Z,21.30
2023-05-16T13:12:53.971Z,21.60
2023-05-16T13:15:43.120Z,21.50
2023-05-16T13:18:32.429Z,21.60
2023-05-16T13:21:22.540Z,21.40
2023-05-16T13:24:12.756Z,21.40
2023-05-16T13:27:02.341Z,21.40
2023-05-16T13:29:51.154Z,21.20
2023-05-16T13:32:40.150Z,21.10
2023-05-16T13:35:29.312Z,21.10
2023-05-16T13:38:18.985Z,21.10
2023-05-16T13:41:09.241Z,21.10
2023-05-16T13:43:57.984Z,21.10
2023-05-16T13:46:46.890Z,21.10
2023-05-16T13:49:35.788Z,21.00
2023-05-16T13:52:24.614Z,20.90
2023-05-16T13:55:13.473Z,21.00
2023-05-16T13:58:04.299Z,21.00
2023-05-16T14:00:53.674Z,21.00
2023-05-16T14:03:42.673Z,21.00
2023-05-16T14:06:31.749Z,21.00
2023-05-16T14:09:21.048Z,21.00
2023-05-16T14:12:10.294Z,20.90
2023-05-16T14:15:01.129Z,20.90
2023-05-16T14:17:50.042Z,20.80
2023-05-16T14:20:38.855Z,20.90
2023-05-16T14:23:27.571Z,20.90
2023-05-16T14:26:16.641Z,20.80
2023-05-16T14:29:06.051Z,20.70
2023-05-16T14:31:56.348Z,20.70
2023-05-16T14:34:45.323Z,20.50
2023-05-16T14:37:34.303Z,20.50
2023-05-16T14:40:23.718Z,20.40
2023-05-16T14:43:13.006Z,20.40
2023-05-16T14:46:02.358Z,20.40
2023-05-16T14:48:52.711Z,20.40
2023-05-16T14:51:41.541Z,20.30
2023-05-16T14:54:30.436Z,20.40
2023-05-16T14:57:19.650Z,20.40
2023-05-16T15:00:10.964Z,20.30
2023-05-16T15:02:59.777Z,20.20
2023-05-16T15:05:50.559Z,20.20
2023-05-16T15:08:39.477Z,20.20
2023-05-16T15:11:29.657Z,20.20
2023-05-16T15:14:18.666Z,20.20
2023-05-16T15:17:09.061Z,20.20
2023-05-16T15:19:58.766Z,20.20
2023-05-16T15:22:49.398Z,20.10
2023-05-16T15:25:38.152Z,20.00
2023-05-16T15:28:27.056Z,20.10
2023-05-16T15:31:15.928Z,20.00
2023-05-16T15:34:06.423Z,20.00
2023-05-16T15:36:55.266Z,20.00
2023-05-16T15:39:45.808Z,20.00
2023-05-16T15:42:35.499Z,20.00
2023-05-16T15:45:24.412Z,19.90
2023-05-16T15:48:13.252Z,19.90
2023-05-16T15:51:02.443Z,19.90
2023-05-16T15:53:51.440Z,19.90
2023-05-16T15:56:41.559Z,19.80
2023-05-16T15:59:30.367Z,19.70
2023-05-16T16:02:19.504Z,19.70
2023-05-16T16:05:09.898Z,19.60
2023-05-16T16:07:58.983Z,19.40
2023-05-16T16:10:47.983Z,19.30
2023-05-16T16:13:38.146Z,19.30
2023-05-16T16:16:26.941Z,19.40
2023-05-16T16:19:15.978Z,19.30
2023-05-16T16:22:06.109Z,19.30
2023-05-16T16:24:56.266Z,19.30
2023-05-16T16:27:45.130Z,19.10
2023-05-16T16:30:35.689Z,19.10
2023-05-16T16:33:24.708Z,19.20
2023-05-16T16:36:13.576Z,19.10
2023-05-16T16:39:02.400Z,19.10
2023-05-16T16:41:51.300Z,19.10
2023-05-16T16:44:40.035Z,19.10
2023-05-16T16:47:30.338Z,18.90
2023-05-16T16:50:19.674Z,19.00
2023-05-16T16:53:08.752Z,19.00
2023-05-16T16:55:57.498Z,19.10
2023-05-16T16:58:46.429Z,19.10
2023-05-16T17:01:35.378Z,19.00
2023-05-16T17:04:25.668Z,18.90
2023-05-16T17:07:15.156Z,18.90
2023-05-16T17:10:04.933Z,19.00
2023-05-16T17:12:54.794Z,19.00
2023-05-16T17:15:44.314Z,18.90
2023-05-16T17:18:34.922Z,18.80
2023-05-16T17:21:26.841Z,18.90
2023-05-16T17:24:15.601Z,18.90
2023-05-16T17:27:05.073Z,18.80
2023-05-16T17:29:54.130Z,18.80
2023-05-16T17:32:42.962Z,18.70
2023-05-16T17:35:32.202Z,18.60
2023-05-16T17:38:22.602Z,18.60
2023-05-16T17:41:11.719Z,18.60
2023-05-16T17:44:01.068Z,18.60
2023-05-16T17:46:49.933Z,18.60
2023-05-16T17:49:38.768Z,18.60
2023-05-16T17:52:27.752Z,18.50
2023-05-16T17:55:18.298Z,18.50
2023-05-16T17:58:09.758Z,18.50
2023-05-16T18:00:59.036Z,18.50
2023-05-16T18:03:48.200Z,18.50
2023-05-16T18:06:38.413Z,18.40
2023-05-16T18:09:27.340Z,18.30
2023-05-16T18:12:18.381Z,18.20
2023-05-16T18:15:09.082Z,18.20
2023-05-16T18:17:58.055Z,18.20
2023-05-16T18:20:47.468Z,18.20
2023-05-16T18:23:36.502Z,18.20
2023-05-16T18:26:25.510Z,18.20
2023-05-16T18:29:15.853Z,18.20
2023-05-16T18:32:04.906Z,18.20
2023-05-16T18:34:53.765Z,18.20
2023-05-16T18:37:44.349Z,18.10
2023-05-16T18:40:34.467Z,18.10
2023-05-16T18:43:23.544Z,18.10
2023-05-16T18:46:13.937Z,18.10
2023-05-16T18:49:03.089Z,18.10
2023-05-16T18:51:52.117Z,18.10
2023-05-16T18:54:41.344Z,18.10
2023-05-16T18:57:30.300Z,18.00
2023-05-16T19:00:20.738Z,18.00
2023-05-16T19:03:13.472Z,18.00
2023-05-16T19:06:02.553Z,18.00
2023-05-16T19:08:51.573Z,18.00
2023-05-16T19:11:40.558Z,17.90
2023-05-16T19:14:29.504Z,17.90
2023-05-16T19:17:18.608Z,17.90
2023-05-16T19:20:11.042Z,17.90
2023-05-16T19:23:00.017Z,17.90
2023-05-16T19:25:49.224Z,17.90
2023-05-16T19:28:40.711Z,17.90
2023-05-16T19:31:29.931Z,17.90
2023-05-16T19:34:20.798Z,17.80
2023-05-16T19:37:11.577Z,17.80
2023-05-16T19:40:00.415Z,17.80
2023-05-16T19:42:49.975Z,17.80
2023-05-16T19:45:38.795Z,17.80
2023-05-16T19:48:28.168Z,17.80
2023-05-16T19:51:23.796Z,17.80
2023-05-16T19:54:22.068Z,17.70
2023-05-16T19:57:10.884Z,17.80
2023-05-16T19:59:59.632Z,17.70
2023-05-16T20:02:48.514Z,17.70
2023-05-16T20:05:37.498Z,17.70
2023-05-16T20:08:26.339Z,17.70
2023-05-16T20:11:17.397Z,17.70
2023-05-16T20:14:06.491Z,17.70
2023-05-16T20:16:55.704Z,17.60
2023-05-16T20:19:44.846Z,17.60
2023-05-16T20:22:34.072Z,17.60
2023-05-16T20:25:22.966Z,17.60
2023-05-16T20:28:13.606Z,17.60
2023-05-16T20:31:02.673Z,17.60
2023-05-16T20:33:51.637Z,17.60
2023-05-16T20:36:40.636Z,17.60
2023-05-16T20:39:31.024Z,17.50
2023-05-16T20:42:19.882Z,17.50
2023-05-16T20:45:11.718Z,17.50
2023-05-16T20:48:01.003Z,17.50
2023-05-16T20:50:50.131Z,17.50
2023-05-16T20:53:39.377Z,17.50
2023-05-16T20:56:28.197Z,17.50
2023-05-16T20:59:17.413Z,17.50
2023-05-16T21:02:10.332Z,17.40
2023-05-16T21:05:02.221Z,17.50
2023-05-16T21:07:58.848Z,17.50
2023-05-16T21:10:47.608Z,17.50
2023-05-16T21:13:36.516Z,17.50
2023-05-16T21:16:25.268Z,17.40
2023-05-16T21:19:15.481Z,17.50
2023-05-16T21:22:04.523Z,17.50
2023-05-16T21:24:53.328Z,17.40
2023-05-16T21:27:42.510Z,17.40
2023-05-16T21:30:31.856Z,17.50
2023-05-16T21:33:20.734Z,17.40
2023-05-16T21:36:11.432Z,17.40
2023-05-16T21:39:00.292Z,17.40
2023-05-16T21:41:49.318Z,17.40
2023-05-16T21:44:38.186Z,17.30
2023-05-16T21:47:27.269Z,17.40
2023-05-16T21:50:16.247Z,17.40
2023-05-16T21:53:06.524Z,17.40
2023-05-16T21:55:55.488Z,17.30
2023-05-16T21:58:44.579Z,17.30
2023-05-16T22:01:33.588Z,17.30
2023-05-16T22:04:23.832Z,17.30
2023-05-16T22:07:12.880Z,17.30
2023-05-16T22:10:05.135Z,17.20
2023-05-16T22:12:54.160Z,17.30
2023-05-16T22:15:46.736Z,17.30
2023-05-16T22:18:41.267Z,17.30
2023-05-16T22:21:30.222Z,17.30
2023-05-16T22:24:19.000Z,17.30
2023-05-16T22:27:09.366Z,17.30
2023-05-16T22:29:58.124Z,17.30
2023-05-16T22:32:47.175Z,17.20
2023-05-16T22:35:36.003Z,17.10
2023-05-16T22:38:24.773Z,17.10
2023-05-16T22:41:13.645Z,17.00
2023-05-16T22:44:04.131Z,17.10
2023-05-16T22:46:53.131Z,17.10
2023-05-16T22:49:41.850Z,17.00
2023-05-16T22:52:30.985Z,17.00
2023-05-16T22:55:19.927Z,16.90
2023-05-16T22:58:08.701Z,16.80
2023-05-16T23:00:59.431Z,16.90
2023-05-16T23:03:48.661Z,17.00
2023-05-16T23:06:37.761Z,17.00
2023-05-16T23:09:27.243Z,16.90
2023-05-16T23:12:16.036Z,16.90
2023-05-16T23:15:06.611Z,16.90
2023-05-16T23:17:56.926Z,16.80
2023-05-16T23:20:45.997Z,16.70
2023-05-16T23:23:35.092Z,16.70
2023-05-16T23:26:23.781Z,16.70
2023-05-16T23:29:12.528Z,16.70
2023-05-16T23:32:01.324Z,16.70
2023-05-16T23:34:52.121Z,16.60
2023-05-16T23:37:41.202Z,16.60
2023-05-16T23:40:30.104Z,16.60
2023-05-16T23:43:18.980Z,16.50
2023-05-16T23:46:11.198Z,16.50
2023-05-16T23:49:00.416Z,16.50
2023-05-16T23:54:42.658Z,16.50
2023-05-16T23:57:31.305Z,16.30
